Time;durP1;ratioP1;P1;durP2;ratioP2;P2;SDS_P1;SDS_P2;PMS_P1;PMS_P2;Temp;Humidity;BMP_temperature;BMP_pressure;BME280_temperature;BME280_humidity;BME280_pressure;Samples;Min_cycle;Max_cycle;Signal;HPM_P1;HPM_P2
2022/01/03 00:00:43;;;;;;;5.10;1.83;;;10.40;99.90;;;;;;4192914;28;20209;-78
2022/01/03 00:02:46;;;;;;;3.53;1.80;;;10.40;99.90;;;;;;4195729;28;20226;-77
2022/01/03 00:04:48;;;;;;;5.33;1.93;;;10.50;99.90;;;;;;4187374;28;20230;-77
2022/01/03 00:06:51;;;;;;;3.87;1.40;;;10.50;99.90;;;;;;4193406;28;20218;-77
2022/01/03 00:08:54;;;;;;;4.20;1.60;;;10.50;99.90;;;;;;4194389;28;20211;-77
2022/01/03 00:10:57;;;;;;;4.07;1.70;;;10.50;99.90;;;;;;4196503;28;20289;-76
2022/01/03 00:12:58;;;;;;;4.37;1.60;;;10.40;99.90;;;;;;4195783;28;20225;-79
2022/01/03 00:15:01;;;;;;;8.77;1.83;;;10.30;99.90;;;;;;4196306;28;20765;-77
2022/01/03 00:17:03;;;;;;;4.63;1.90;;;10.20;99.90;;;;;;4195682;28;20205;-79
2022/01/03 00:19:05;;;;;;;4.33;1.90;;;10.00;99.90;;;;;;4197574;28;20706;-78
2022/01/03 00:21:11;;;;;;;7.37;2.83;;;9.80;99.90;;;;;;4208150;28;20847;-78
2022/01/03 00:23:16;;;;;;;5.93;1.97;;;9.70;99.90;;;;;;4196323;28;20275;-78
2022/01/03 00:25:19;;;;;;;3.30;1.73;;;9.50;99.90;;;;;;4193710;28;20207;-79
2022/01/03 00:27:26;;;;;;;3.03;1.60;;;9.40;99.90;;;;;;4195973;28;20259;-79
2022/01/03 00:29:31;;;;;;;4.57;1.50;;;9.30;99.90;;;;;;4192401;28;20223;-78
2022/01/03 00:31:35;;;;;;;5.10;1.20;;;9.20;99.90;;;;;;4197499;28;20992;-80
2022/01/03 00:33:38;;;;;;;4.63;0.90;;;9.00;99.90;;;;;;4191511;28;20647;-82
2022/01/03 00:35:42;;;;;;;3.83;0.90;;;8.90;99.90;;;;;;4192097;28;20479;-79
2022/01/03 00:37:45;;;;;;;2.23;0.90;;;8.80;99.90;;;;;;4197597;28;20467;-80
2022/01/03 00:39:48;;;;;;;5.30;0.80;;;8.70;99.90;;;;;;4201420;28;20964;-81
2022/01/03 00:41:50;;;;;;;1.17;0.60;;;8.60;99.90;;;;;;4195730;28;20487;-80
2022/01/03 00:43:54;;;;;;;2.00;0.80;;;8.50;99.90;;;;;;4200447;28;20495;-79
2022/01/03 00:45:57;;;;;;;2.10;0.70;;;8.40;99.90;;;;;;4188072;28;20498;-79
2022/01/03 00:47:59;;;;;;;0.83;0.50;;;8.30;99.90;;;;;;4190754;28;20485;-79
2022/01/03 00:50:02;;;;;;;1.40;0.47;;;8.20;99.90;;;;;;4190421;28;20489;-79
2022/01/03 00:52:04;;;;;;;0.80;0.50;;;8.10;99.90;;;;;;4192583;28;21021;-80
2022/01/03 00:54:06;;;;;;;1.57;0.40;;;8.10;99.90;;;;;;4193720;28;20490;-80
2022/01/03 00:56:13;;;;;;;1.37;0.57;;;8.10;99.90;;;;;;4197473;28;20520;-81
2022/01/03 00:58:19;;;;;;;1.73;0.70;;;8.00;99.90;;;;;;4197179;28;20459;-80
2022/01/03 01:00:21;;;;;;;0.83;0.47;;;7.90;99.90;;;;;;4191968;28;20976;-80
2022/01/03 01:02:26;;;;;;;0.40;0.40;;;7.90;99.90;;;;;;4199315;28;20486;-80
2022/01/03 01:04:28;;;;;;;1.80;0.43;;;7.80;99.90;;;;;;4198833;28;20891;-79
2022/01/03 01:06:34;;;;;;;1.67;0.60;;;7.80;99.90;;;;;;4199052;28;20998;-79
2022/01/03 01:08:37;;;;;;;0.67;0.40;;;8.00;99.90;;;;;;4193507;28;20528;-79
2022/01/03 01:10:41;;;;;;;1.60;0.40;;;7.80;99.90;;;;;;4184594;28;20460;-81
2022/01/03 01:12:46;;;;;;;0.30;0.30;;;7.80;99.90;;;;;;4199893;28;20877;-80
2022/01/03 01:14:51;;;;;;;0.47;0.30;;;7.80;99.90;;;;;;4198393;28;20987;-80
2022/01/03 01:16:52;;;;;;;0.40;0.40;;;7.70;99.90;;;;;;4213056;28;20984;-82
2022/01/03 01:18:55;;;;;;;0.63;0.23;;;7.70;99.90;;;;;;4193446;28;20475;-80
2022/01/03 01:20:57;;;;;;;0.97;0.30;;;7.70;99.90;;;;;;4197622;28;20456;-81
2022/01/03 01:22:59;;;;;;;2.57;0.43;;;7.70;99.90;;;;;;4198859;28;20487;-81
2022/01/03 01:25:24;;;;;;;0.30;0.30;;;7.70;99.90;;;;;;4196800;28;20524;-80
2022/01/03 01:29:46;;;;;;;3.17;0.40;;;7.60;99.90;;;;;;4197800;28;20470;-82
2022/01/03 01:31:51;;;;;;;1.70;0.40;;;7.60;99.90;;;;;;4206120;28;20538;-79
2022/01/03 01:33:54;;;;;;;0.40;0.30;;;7.60;99.90;;;;;;4190349;28;20565;-79
2022/01/03 01:35:59;;;;;;;1.73;0.30;;;7.60;99.90;;;;;;4198563;28;20463;-80
2022/01/03 01:38:02;;;;;;;0.73;0.20;;;7.50;99.90;;;;;;4196256;28;20468;-79
2022/01/03 01:40:05;;;;;;;0.67;0.40;;;7.50;99.90;;;;;;4206511;28;20470;-80
2022/01/03 01:42:07;;;;;;;1.07;0.30;;;7.50;99.90;;;;;;4201713;28;20916;-80
2022/01/03 01:44:11;;;;;;;1.70;0.43;;;7.50;99.90;;;;;;4189331;28;20546;-80
2022/01/03 01:46:16;;;;;;;1.10;0.37;;;7.50;99.90;;;;;;4205053;28;20459;-81
2022/01/03 01:48:18;;;;;;;0.53;0.20;;;7.50;99.90;;;;;;4213634;28;20507;-81
2022/01/03 01:50:22;;;;;;;0.80;0.30;;;7.50;99.90;;;;;;4205928;28;20467;-81
2022/01/03 01:52:25;;;;;;;1.47;0.40;;;7.50;99.90;;;;;;4193305;28;20521;-81
2022/01/03 01:54:31;;;;;;;1.67;0.30;;;7.50;99.90;;;;;;4200593;28;20472;-81
2022/01/03 01:56:43;;;;;;;0.60;0.30;;;7.40;99.90;;;;;;4202402;28;20471;-81
2022/01/03 01:59:11;;;;;;;3.20;0.50;;;7.40;99.90;;;;;;4200583;28;20471;-82
2022/01/03 02:01:15;;;;;;;1.07;0.40;;;7.40;99.90;;;;;;4185866;28;20470;-81
2022/01/03 02:03:27;;;;;;;3.33;0.40;;;7.40;99.90;;;;;;4196638;28;20555;-81
2022/01/03 02:05:34;;;;;;;1.60;0.50;;;7.40;99.90;;;;;;4198125;28;20466;-81
2022/01/03 02:07:54;;;;;;;1.43;0.70;;;7.40;99.90;;;;;;4183664;28;20870;-81
2022/01/03 02:10:05;;;;;;;2.23;0.40;;;7.40;99.90;;;;;;4185486;28;20447;-81
2022/01/03 02:12:14;;;;;;;1.77;0.50;;;7.50;99.90;;;;;;4199736;28;20444;-81
2022/01/03 02:14:16;;;;;;;0.63;0.40;;;7.50;99.90;;;;;;4198266;28;21062;-81
2022/01/03 02:16:20;;;;;;;2.67;0.63;;;7.50;99.90;;;;;;4196389;28;20451;-81
2022/01/03 02:18:22;;;;;;;1.13;0.60;;;7.60;99.90;;;;;;4202075;28;20459;-81
2022/01/03 02:20:28;;;;;;;2.07;0.60;;;7.60;99.90;;;;;;4201667;28;21006;-82
2022/01/03 02:22:30;;;;;;;1.20;0.50;;;7.60;99.90;;;;;;4199507;28;20567;-81
2022/01/03 02:24:31;;;;;;;0.63;0.50;;;7.60;99.90;;;;;;4196809;28;20486;-81
2022/01/03 02:26:34;;;;;;;0.93;0.70;;;7.60;99.90;;;;;;4196457;28;21003;-81
2022/01/03 02:28:35;;;;;;;0.90;0.60;;;7.60;99.90;;;;;;4194014;28;20854;-81
2022/01/03 02:30:37;;;;;;;1.53;0.60;;;7.60;99.90;;;;;;4199952;28;20463;-81
2022/01/03 02:32:39;;;;;;;1.73;0.60;;;7.60;99.90;;;;;;4196023;28;20471;-81
2022/01/03 02:34:42;;;;;;;1.20;0.50;;;7.60;99.90;;;;;;4200704;28;20463;-81
2022/01/03 02:36:47;;;;;;;1.37;0.40;;;7.60;99.90;;;;;;4195135;28;20468;-81
2022/01/03 02:38:48;;;;;;;2.53;0.50;;;7.60;99.90;;;;;;4201146;28;20560;-81
2022/01/03 02:40:50;;;;;;;1.77;0.40;;;7.60;99.90;;;;;;4200695;28;20452;-81
2022/01/03 02:42:52;;;;;;;0.83;0.40;;;7.60;99.90;;;;;;4197755;28;20532;-81
2022/01/03 02:45:02;;;;;;;1.97;0.93;;;7.60;99.90;;;;;;4199100;28;21020;-81
2022/01/03 02:47:04;;;;;;;0.73;0.60;;;7.60;99.90;;;;;;4200276;28;20975;-81
2022/01/03 02:49:06;;;;;;;0.70;0.57;;;7.60;99.90;;;;;;4198017;28;20468;-81
2022/01/03 02:51:08;;;;;;;2.20;0.60;;;7.60;99.90;;;;;;4194703;28;20482;-81
2022/01/03 02:53:11;;;;;;;0.83;0.60;;;7.60;99.90;;;;;;4196136;28;20459;-81
2022/01/03 02:55:14;;;;;;;1.87;0.40;;;7.60;99.90;;;;;;4200013;28;20459;-81
2022/01/03 02:57:16;;;;;;;1.70;0.40;;;7.50;99.90;;;;;;4196801;28;20472;-81
2022/01/03 02:59:19;;;;;;;1.63;0.60;;;7.50;99.90;;;;;;4192036;28;20484;-81
2022/01/03 03:01:21;;;;;;;1.27;0.50;;;7.50;99.90;;;;;;4194874;28;20543;-81
2022/01/03 03:03:23;;;;;;;2.33;0.70;;;7.60;99.90;;;;;;4199649;28;20491;-81
2022/01/03 03:05:25;;;;;;;2.40;0.70;;;7.60;99.90;;;;;;4198626;28;20458;-81
2022/01/03 03:07:29;;;;;;;1.63;0.53;;;7.60;99.90;;;;;;4186770;28;20455;-81
2022/01/03 03:09:32;;;;;;;0.80;0.50;;;7.60;99.90;;;;;;4200655;28;20448;-81
2022/01/03 03:11:34;;;;;;;1.43;0.70;;;7.70;99.90;;;;;;4199951;28;20455;-81
2022/01/03 03:13:36;;;;;;;0.67;0.40;;;7.60;99.90;;;;;;4200523;28;20467;-81
2022/01/03 03:15:38;;;;;;;1.80;0.50;;;7.70;99.90;;;;;;4199650;28;20456;-81
2022/01/03 03:17:40;;;;;;;0.53;0.40;;;7.70;99.90;;;;;;4194337;28;20518;-81
2022/01/03 03:19:57;;;;;;;0.63;0.40;;;7.70;99.90;;;;;;4211274;28;20446;-80
2022/01/03 03:21:58;;;;;;;2.23;0.50;;;7.70;99.90;;;;;;4211723;28;20456;-80
2022/01/03 03:24:00;;;;;;;3.20;0.70;;;7.70;99.90;;;;;;4197277;28;21019;-81
2022/01/03 03:26:03;;;;;;;2.23;1.17;;;8.50;99.90;;;;;;4209755;28;20455;-81
2022/01/03 03:28:07;;;;;;;2.23;0.70;;;7.70;99.90;;;;;;4205428;28;20502;-81
2022/01/03 03:30:11;;;;;;;1.60;0.40;;;7.70;99.90;;;;;;4200529;28;20509;-81
2022/01/03 03:32:13;;;;;;;1.70;0.50;;;7.80;99.90;;;;;;4195745;28;20468;-80
2022/01/03 03:34:14;;;;;;;2.20;0.53;;;7.70;99.90;;;;;;4189797;28;20499;-81
2022/01/03 03:36:16;;;;;;;1.13;0.60;;;7.70;99.90;;;;;;4200150;28;20462;-81
2022/01/03 03:38:19;;;;;;;0.50;0.50;;;7.70;99.90;;;;;;4195804;28;20479;-81
2022/01/03 03:40:20;;;;;;;1.50;0.77;;;7.70;99.90;;;;;;4207169;28;20462;-81
2022/01/03 03:42:23;;;;;;;3.97;0.70;;;7.80;99.90;;;;;;4207602;28;20869;-81
2022/01/03 03:44:25;;;;;;;2.00;0.80;;;7.80;99.90;;;;;;4206523;28;20536;-80
2022/01/03 03:46:27;;;;;;;4.80;0.77;;;7.80;99.90;;;;;;4201065;28;20475;-81
2022/01/03 03:48:29;;;;;;;2.30;0.97;;;7.80;99.90;;;;;;4212736;28;20987;-80
2022/01/03 03:50:30;;;;;;;2.23;1.00;;;7.90;99.90;;;;;;4205387;28;20456;-80
2022/01/03 03:52:32;;;;;;;3.07;1.17;;;7.90;99.90;;;;;;4196065;28;20719;-80
2022/01/03 03:54:35;;;;;;;1.50;0.80;;;7.90;99.90;;;;;;4200995;28;20476;-81
2022/01/03 03:56:37;;;;;;;3.63;1.00;;;7.90;99.90;;;;;;4202611;28;20879;-81
2022/01/03 03:58:40;;;;;;;2.90;0.80;;;8.00;99.90;;;;;;4199476;28;20481;-78
2022/01/03 04:00:42;;;;;;;2.43;0.90;;;8.00;99.90;;;;;;4198354;28;20517;-80
2022/01/03 04:02:45;;;;;;;2.20;0.90;;;8.00;99.90;;;;;;4201166;28;20490;-80
2022/01/03 04:04:46;;;;;;;1.80;0.83;;;8.00;99.90;;;;;;4204239;28;20877;-80
2022/01/03 04:06:49;;;;;;;2.00;0.93;;;8.00;99.90;;;;;;4182296;28;20472;-82
2022/01/03 04:08:50;;;;;;;2.83;1.10;;;8.00;99.90;;;;;;4182694;28;20509;-80
2022/01/03 04:10:52;;;;;;;1.23;0.90;;;8.00;99.90;;;;;;4192496;28;20885;-80
2022/01/03 04:12:54;;;;;;;4.37;0.90;;;8.10;99.90;;;;;;4196249;28;20480;-79
2022/01/03 04:14:57;;;;;;;1.73;0.90;;;8.10;99.90;;;;;;4193224;28;20556;-79
2022/01/03 04:16:59;;;;;;;2.20;1.07;;;8.10;99.90;;;;;;4191495;28;20473;-80
2022/01/03 04:19:01;;;;;;;3.53;0.90;;;8.10;99.90;;;;;;4196515;28;20468;-79
2022/01/03 04:21:02;;;;;;;1.63;0.90;;;8.10;99.90;;;;;;4195995;28;20695;-80
2022/01/03 04:23:04;;;;;;;1.97;0.90;;;8.10;99.90;;;;;;4191418;28;21075;-81
2022/01/03 04:25:07;;;;;;;1.67;1.03;;;8.10;99.90;;;;;;4192096;28;20826;-81
2022/01/03 04:27:09;;;;;;;4.90;1.10;;;8.20;99.90;;;;;;4198952;28;20460;-81
2022/01/03 04:29:10;;;;;;;3.03;1.10;;;8.20;99.90;;;;;;4198691;28;20488;-81
2022/01/03 04:31:14;;;;;;;3.80;1.10;;;8.10;99.90;;;;;;4196570;28;20456;-81
2022/01/03 04:33:15;;;;;;;5.10;1.40;;;8.10;99.90;;;;;;4195170;28;20468;-80
2022/01/03 04:35:17;;;;;;;1.90;1.07;;;8.20;99.90;;;;;;4199150;28;20566;-80
2022/01/03 04:37:19;;;;;;;2.30;0.77;;;8.10;99.90;;;;;;4202058;28;20474;-81
2022/01/03 04:39:20;;;;;;;5.60;1.33;;;8.10;99.90;;;;;;4202258;28;20478;-80
2022/01/03 04:41:22;;;;;;;5.07;1.00;;;8.10;99.90;;;;;;4202574;28;20526;-81
2022/01/03 04:43:24;;;;;;;2.53;0.80;;;8.10;99.90;;;;;;4202097;28;20480;-80
2022/01/03 04:45:25;;;;;;;2.87;1.00;;;8.10;99.90;;;;;;4202773;28;20455;-81
2022/01/03 04:47:28;;;;;;;1.90;0.90;;;8.10;99.90;;;;;;4202095;28;20840;-81
2022/01/03 04:49:30;;;;;;;4.43;1.20;;;8.10;99.90;;;;;;4199582;28;20968;-81
2022/01/03 04:51:32;;;;;;;4.30;0.80;;;8.10;99.90;;;;;;4202098;28;20459;-81
2022/01/03 04:53:37;;;;;;;5.63;1.60;;;8.00;99.90;;;;;;4201912;28;20483;-80
2022/01/03 04:55:38;;;;;;;2.17;1.00;;;8.00;99.90;;;;;;4201563;28;20503;-81
2022/01/03 04:57:40;;;;;;;5.70;1.10;;;8.00;99.90;;;;;;4190617;28;20467;-81
2022/01/03 04:59:42;;;;;;;3.13;1.07;;;7.90;99.90;;;;;;4196732;28;20479;-80
2022/01/03 05:01:44;;;;;;;5.07;1.17;;;7.90;99.90;;;;;;4198695;28;20468;-79
2022/01/03 05:03:47;;;;;;;2.93;1.00;;;7.90;99.90;;;;;;4203814;28;20548;-81
2022/01/03 05:05:48;;;;;;;5.70;1.30;;;7.90;99.90;;;;;;4201953;28;20467;-80
2022/01/03 05:07:50;;;;;;;4.80;1.60;;;7.90;99.90;;;;;;4201959;28;20460;-80
2022/01/03 05:09:52;;;;;;;5.27;1.43;;;7.70;99.90;;;;;;4199732;28;20436;-80
2022/01/03 05:11:53;;;;;;;1.07;0.97;;;7.80;99.90;;;;;;4204575;28;20509;-80
2022/01/03 05:13:55;;;;;;;2.37;1.03;;;7.80;99.90;;;;;;4197835;28;20491;-81
2022/01/03 05:15:57;;;;;;;1.87;1.00;;;7.70;99.90;;;;;;4200840;28;20466;-80
2022/01/03 05:17:59;;;;;;;4.60;1.07;;;7.70;99.90;;;;;;4198446;28;20536;-81
2022/01/03 05:20:02;;;;;;;3.40;0.97;;;7.70;99.90;;;;;;4199479;28;21004;-81
2022/01/03 05:22:05;;;;;;;1.93;1.30;;;7.70;99.90;;;;;;4200750;28;20608;-81
2022/01/03 05:24:07;;;;;;;5.70;1.13;;;7.70;99.90;;;;;;4205024;28;20491;-81
2022/01/03 05:26:09;;;;;;;2.83;1.20;;;7.70;99.90;;;;;;4199672;28;20463;-80
2022/01/03 05:28:12;;;;;;;3.40;1.00;;;7.60;99.90;;;;;;4201784;28;20467;-80
2022/01/03 05:30:13;;;;;;;7.60;1.30;;;7.60;99.90;;;;;;4205767;28;20463;-80
2022/01/03 05:32:15;;;;;;;4.17;1.10;;;7.60;99.90;;;;;;4185488;28;20449;-80
2022/01/03 05:34:17;;;;;;;6.10;1.40;;;7.60;99.90;;;;;;4191395;28;20506;-80
2022/01/03 05:36:20;;;;;;;6.13;2.00;;;7.50;99.90;;;;;;4197495;28;20843;-80
2022/01/03 05:38:23;;;;;;;3.47;1.23;;;7.50;99.90;;;;;;4196473;28;20885;-79
2022/01/03 05:40:25;;;;;;;3.10;1.50;;;7.50;99.90;;;;;;4198913;28;20509;-80
2022/01/03 05:42:27;;;;;;;5.27;1.27;;;7.50;99.90;;;;;;4199695;28;20967;-80
2022/01/03 05:44:29;;;;;;;5.57;1.60;;;7.50;99.90;;;;;;4201939;28;20498;-82
2022/01/03 05:46:31;;;;;;;4.43;1.50;;;7.50;99.90;;;;;;4204672;28;20934;-82
2022/01/03 05:48:33;;;;;;;4.63;1.53;;;7.40;99.90;;;;;;4195516;28;20493;-82
2022/01/03 05:50:34;;;;;;;4.07;1.20;;;7.70;99.90;;;;;;4196116;28;20987;-82
2022/01/03 05:52:37;;;;;;;2.23;1.10;;;7.40;99.90;;;;;;4195146;28;20519;-82
2022/01/03 05:54:39;;;;;;;3.47;1.20;;;7.40;99.90;;;;;;4197009;28;20528;-82
2022/01/03 05:56:41;;;;;;;1.97;1.30;;;7.40;99.90;;;;;;4197916;28;20532;-81
2022/01/03 05:58:43;;;;;;;5.43;1.70;;;7.40;99.90;;;;;;4200226;28;20459;-82
2022/01/03 06:00:46;;;;;;;6.80;2.07;;;7.40;99.90;;;;;;4194595;28;20566;-79
2022/01/03 06:02:53;;;;;;;5.00;2.07;;;7.40;99.90;;;;;;4197731;28;20463;-81
2022/01/03 06:04:58;;;;;;;5.63;2.10;;;7.40;99.90;;;;;;4193473;28;20529;-80
2022/01/03 06:07:05;;;;;;;5.30;2.37;;;7.40;99.90;;;;;;4197508;28;20821;-80
2022/01/03 06:09:08;;;;;;;9.70;2.60;;;7.40;99.90;;;;;;4199318;28;20462;-81
2022/01/03 06:11:10;;;;;;;7.20;2.40;;;7.40;99.90;;;;;;4199136;28;20467;-81
2022/01/03 06:13:11;;;;;;;6.37;2.40;;;7.40;99.90;;;;;;4193692;28;20476;-82
2022/01/03 06:15:15;;;;;;;7.20;2.43;;;7.40;99.90;;;;;;4194509;28;20485;-81
2022/01/03 06:17:17;;;;;;;6.53;2.60;;;7.40;99.90;;;;;;4193262;28;20518;-80
2022/01/03 06:19:20;;;;;;;6.30;1.90;;;7.50;99.90;;;;;;4197987;28;20451;-81
2022/01/03 06:21:22;;;;;;;3.27;1.80;;;7.50;99.90;;;;;;4195970;28;20498;-81
2022/01/03 06:23:23;;;;;;;7.13;2.23;;;8.00;99.90;;;;;;4197395;28;20481;-81
2022/01/03 06:25:26;;;;;;;9.87;2.00;;;7.50;99.90;;;;;;4194468;28;20514;-82
2022/01/03 06:27:28;;;;;;;10.60;2.40;;;7.50;99.90;;;;;;4196435;28;20529;-82
2022/01/03 06:29:30;;;;;;;4.40;1.80;;;7.50;99.90;;;;;;4196745;28;20487;-80
2022/01/03 06:31:32;;;;;;;3.93;1.63;;;7.50;99.90;;;;;;4196448;28;20471;-81
2022/01/03 06:33:33;;;;;;;6.37;1.70;;;7.60;99.90;;;;;;4196421;28;20483;-81
2022/01/03 06:35:36;;;;;;;6.80;1.80;;;7.60;99.90;;;;;;4193566;28;20467;-81
2022/01/03 06:37:38;;;;;;;6.00;1.97;;;7.60;99.90;;;;;;4194206;28;20460;-79
2022/01/03 06:39:39;;;;;;;5.07;1.57;;;7.50;99.90;;;;;;4188068;28;20465;-80
2022/01/03 06:41:44;;;;;;;6.37;1.53;;;7.50;99.90;;;;;;4182201;28;20973;-80
2022/01/03 06:43:46;;;;;;;5.57;1.50;;;7.50;99.90;;;;;;4187080;28;20976;-80
2022/01/03 06:45:47;;;;;;;8.13;1.67;;;7.50;99.90;;;;;;4190806;28;20471;-79
2022/01/03 06:47:50;;;;;;;4.80;2.00;;;7.40;99.90;;;;;;4193987;28;20565;-79
2022/01/03 06:49:53;;;;;;;2.67;1.10;;;7.40;99.90;;;;;;4189279;28;20541;-80
2022/01/03 06:51:55;;;;;;;6.13;1.60;;;7.40;99.90;;;;;;4187613;28;20457;-79
2022/01/03 06:53:56;;;;;;;6.40;1.50;;;7.40;99.90;;;;;;4193369;28;20475;-80
2022/01/03 06:55:58;;;;;;;7.23;1.60;;;7.40;99.90;;;;;;4191702;28;21095;-80
2022/01/03 06:58:01;;;;;;;7.20;1.50;;;7.40;99.90;;;;;;4183717;28;20460;-81
2022/01/03 07:00:04;;;;;;;6.00;1.47;;;7.40;99.90;;;;;;4190408;28;20971;-80
2022/01/03 07:02:06;;;;;;;2.63;1.23;;;7.40;99.90;;;;;;4198147;28;20512;-80
2022/01/03 07:04:07;;;;;;;5.80;1.20;;;7.30;99.90;;;;;;4189806;28;21210;-79
2022/01/03 07:06:09;;;;;;;5.50;1.40;;;7.40;99.90;;;;;;4190610;28;20479;-79
2022/01/03 07:08:11;;;;;;;6.07;1.57;;;7.30;99.90;;;;;;4187005;28;20459;-80
2022/01/03 07:10:14;;;;;;;7.50;1.30;;;7.30;99.90;;;;;;4194277;28;20521;-80
2022/01/03 07:12:16;;;;;;;7.67;1.47;;;7.30;99.90;;;;;;4192336;28;20486;-80
2022/01/03 07:18:59;;;;;;;6.00;1.40;;;7.30;99.90;;;;;;4193005;28;20450;-82
2022/01/03 07:21:01;;;;;;;6.03;1.37;;;7.30;99.90;;;;;;4193836;28;20472;-82
2022/01/03 07:23:03;;;;;;;3.53;1.00;;;7.30;99.90;;;;;;4195468;28;21016;-81
2022/01/03 07:25:06;;;;;;;6.23;1.67;;;7.30;99.90;;;;;;4192999;28;20557;-81
2022/01/03 07:27:09;;;;;;;7.73;1.60;;;7.30;99.90;;;;;;4195966;28;20972;-81
2022/01/03 07:29:11;;;;;;;5.87;1.30;;;7.30;99.90;;;;;;4190613;28;20901;-81
2022/01/03 07:31:14;;;;;;;4.23;1.13;;;7.20;99.90;;;;;;4184737;28;20464;-82
2022/01/03 07:33:16;;;;;;;4.37;1.20;;;7.30;99.90;;;;;;4184594;28;20505;-82
2022/01/03 07:35:18;;;;;;;6.53;1.03;;;7.20;99.90;;;;;;4191361;28;20455;-82
2022/01/03 07:37:19;;;;;;;8.83;1.87;;;7.20;99.90;;;;;;4188663;28;20506;-81
2022/01/03 07:39:21;;;;;;;6.40;1.17;;;7.20;99.90;;;;;;4191901;28;20553;-81
2022/01/03 07:41:23;;;;;;;5.90;1.33;;;7.20;99.90;;;;;;4199781;28;20496;-81
2022/01/03 07:43:24;;;;;;;7.60;1.40;;;7.20;99.90;;;;;;4186727;28;20448;-82
2022/01/03 07:45:28;;;;;;;4.73;1.27;;;7.90;99.90;;;;;;4193970;28;20491;-82
2022/01/03 07:47:31;;;;;;;5.37;1.10;;;7.20;99.90;;;;;;4187189;28;20457;-82
2022/01/03 07:49:32;;;;;;;8.70;1.27;;;7.20;99.90;;;;;;4189818;28;20521;-82
2022/01/03 07:51:34;;;;;;;8.60;1.27;;;7.10;99.90;;;;;;4195524;28;20465;-82
2022/01/03 07:53:36;;;;;;;7.27;1.47;;;7.10;99.90;;;;;;4195560;28;20590;-81
2022/01/03 07:55:38;;;;;;;6.00;1.20;;;7.10;99.90;;;;;;4190241;28;20467;-81
2022/01/03 07:57:40;;;;;;;8.30;1.20;;;7.10;99.90;;;;;;4203280;28;20467;-82
2022/01/03 07:59:41;;;;;;;6.77;1.47;;;7.10;99.90;;;;;;4199768;28;20904;-82
2022/01/03 08:01:43;;;;;;;8.87;1.73;;;7.10;99.90;;;;;;4208115;28;20454;-82
2022/01/03 08:03:46;;;;;;;8.93;1.73;;;7.10;99.90;;;;;;4198643;28;20542;-82
2022/01/03 08:05:48;;;;;;;7.47;1.40;;;7.10;99.90;;;;;;4194112;28;20470;-82
2022/01/03 08:07:50;;;;;;;7.37;1.30;;;7.10;99.90;;;;;;4198214;28;20471;-82
2022/01/03 08:09:51;;;;;;;8.80;1.60;;;7.10;99.90;;;;;;4194462;28;20459;-81
2022/01/03 08:11:53;;;;;;;9.33;1.30;;;7.10;99.90;;;;;;4197000;28;20444;-82
2022/01/03 08:13:55;;;;;;;8.30;1.30;;;7.10;99.90;;;;;;4192988;28;20537;-82
2022/01/03 08:15:56;;;;;;;5.30;1.40;;;7.20;99.90;;;;;;4192862;28;20457;-82
2022/01/03 08:17:58;;;;;;;5.60;1.17;;;7.20;99.90;;;;;;4197774;28;20448;-81
2022/01/03 08:20:01;;;;;;;6.87;1.50;;;7.30;99.90;;;;;;4194853;28;20472;-81
2022/01/03 08:22:04;;;;;;;8.03;1.57;;;7.30;99.90;;;;;;4182602;28;20464;-81
2022/01/03 08:24:06;;;;;;;4.37;1.30;;;7.30;99.90;;;;;;4181771;28;20845;-82
2022/01/03 08:26:08;;;;;;;8.70;1.57;;;7.30;99.90;;;;;;4197598;28;21065;-82
2022/01/03 08:28:11;;;;;;;7.57;1.40;;;7.30;99.90;;;;;;4196428;28;20456;-82
2022/01/03 08:30:12;;;;;;;9.60;1.70;;;7.30;99.90;;;;;;4200043;28;20514;-82
2022/01/03 08:32:14;;;;;;;5.37;1.27;;;7.30;99.90;;;;;;4202993;28;20455;-82
2022/01/03 08:34:16;;;;;;;10.90;1.30;;;7.30;99.90;;;;;;4197976;28;20475;-81
2022/01/03 08:36:19;;;;;;;7.20;1.43;;;7.30;99.90;;;;;;4205628;28;20459;-81
2022/01/03 08:38:21;;;;;;;5.17;1.53;;;7.30;99.90;;;;;;4196116;28;20472;-81
2022/01/03 08:40:24;;;;;;;4.33;1.20;;;7.30;99.90;;;;;;4198794;28;20844;-81
2022/01/03 08:42:26;;;;;;;6.50;1.20;;;7.30;99.90;;;;;;4198844;28;20865;-81
2022/01/03 08:44:27;;;;;;;5.23;1.40;;;7.40;99.90;;;;;;4197747;28;20869;-81
2022/01/03 08:46:30;;;;;;;6.03;1.40;;;7.40;99.90;;;;;;4194347;28;21056;-81
2022/01/03 08:48:32;;;;;;;4.87;1.30;;;7.40;99.90;;;;;;4185591;28;20464;-79
2022/01/03 08:50:34;;;;;;;9.10;1.57;;;7.40;99.90;;;;;;4190978;28;20464;-81
2022/01/03 08:52:37;;;;;;;6.73;1.43;;;7.40;99.90;;;;;;4191856;28;20461;-81
2022/01/03 08:54:39;;;;;;;5.83;1.13;;;7.40;99.90;;;;;;4187559;28;20537;-79
2022/01/03 08:56:41;;;;;;;8.53;1.77;;;7.50;99.90;;;;;;4193765;28;20465;-82
2022/01/03 08:58:42;;;;;;;6.70;1.33;;;7.50;99.90;;;;;;4200430;28;20455;-82
2022/01/03 09:00:44;;;;;;;13.80;3.10;;;7.50;99.90;;;;;;4203507;28;20500;-82
2022/01/03 09:02:46;;;;;;;8.80;1.63;;;7.50;99.90;;;;;;4200136;28;20471;-82
2022/01/03 09:04:48;;;;;;;10.07;1.50;;;7.50;99.90;;;;;;4200256;28;20528;-81
2022/01/03 09:06:51;;;;;;;7.67;1.77;;;7.60;99.90;;;;;;4193840;28;20452;-82
2022/01/03 09:08:55;;;;;;;6.70;1.50;;;7.60;99.90;;;;;;4192501;28;20510;-81
2022/01/03 09:10:57;;;;;;;6.27;1.77;;;7.60;99.90;;;;;;4189072;28;20526;-81
2022/01/03 09:12:58;;;;;;;11.43;1.67;;;7.60;99.90;;;;;;4193060;28;20456;-81
2022/01/03 09:15:01;;;;;;;6.60;1.60;;;7.60;99.90;;;;;;4195891;28;20505;-82
2022/01/03 09:17:04;;;;;;;6.93;1.40;;;7.60;99.90;;;;;;4197373;28;20455;-81
2022/01/03 09:19:06;;;;;;;6.90;1.60;;;7.60;99.90;;;;;;4191579;28;20514;-82
2022/01/03 09:21:09;;;;;;;8.27;1.40;;;7.60;99.90;;;;;;4192007;28;20504;-79
2022/01/03 09:23:16;;;;;;;7.47;1.50;;;7.60;99.90;;;;;;4199045;28;20482;-82
2022/01/03 09:29:58;;;;;;;7.50;1.60;;;7.70;99.90;;;;;;4191521;28;20518;-82
2022/01/03 09:32:00;;;;;;;6.57;1.40;;;7.70;99.90;;;;;;4195238;28;20463;-79
2022/01/03 09:34:05;;;;;;;8.20;2.00;;;7.70;99.90;;;;;;4195059;28;20471;-80
2022/01/03 09:36:06;;;;;;;6.97;1.60;;;7.70;99.90;;;;;;4197497;28;20447;-79
2022/01/03 09:38:08;;;;;;;10.40;1.37;;;7.70;99.90;;;;;;4193527;28;20517;-79
2022/01/03 09:40:10;;;;;;;5.97;1.20;;;7.70;99.90;;;;;;4198124;28;20445;-79
2022/01/03 09:42:17;;;;;;;7.23;1.90;;;7.70;99.90;;;;;;4196511;28;20948;-79
2022/01/03 09:44:22;;;;;;;3.63;1.20;;;7.70;99.90;;;;;;4196349;28;20475;-81
2022/01/03 09:46:27;;;;;;;4.13;1.20;;;7.70;99.90;;;;;;4201088;28;20448;-81
2022/01/03 09:48:29;;;;;;;6.37;1.60;;;7.80;99.90;;;;;;4202108;28;20463;-81
2022/01/03 09:50:33;;;;;;;7.73;1.30;;;7.80;99.90;;;;;;4199968;28;20490;-81
2022/01/03 09:52:35;;;;;;;6.13;1.40;;;7.80;99.90;;;;;;4196125;28;20474;-81
2022/01/03 09:54:38;;;;;;;8.40;1.50;;;7.80;99.90;;;;;;4196588;28;20491;-81
2022/01/03 09:56:42;;;;;;;7.03;1.67;;;7.80;99.90;;;;;;4196587;28;20488;-81
2022/01/03 09:58:46;;;;;;;5.53;1.10;;;7.80;99.90;;;;;;4200566;28;20875;-81
2022/01/03 10:00:48;;;;;;;7.47;1.50;;;7.80;99.90;;;;;;4197642;28;20464;-81
2022/01/03 10:02:50;;;;;;;6.97;1.30;;;7.80;99.90;;;;;;4194945;28;20460;-81
2022/01/03 10:04:52;;;;;;;7.47;1.50;;;7.90;99.90;;;;;;4196984;28;20496;-81
2022/01/03 10:06:54;;;;;;;4.93;1.20;;;7.90;99.90;;;;;;4195793;28;20479;-80
2022/01/03 10:08:56;;;;;;;6.80;1.37;;;8.00;99.90;;;;;;4194131;28;20487;-81
2022/01/03 10:10:58;;;;;;;8.67;1.77;;;8.00;99.90;;;;;;4188313;28;20507;-80
2022/01/03 10:12:59;;;;;;;10.60;1.57;;;8.10;99.90;;;;;;4197018;28;20467;-80
2022/01/03 10:15:04;;;;;;;5.03;1.40;;;8.20;99.90;;;;;;4193057;28;20823;-80
2022/01/03 10:17:07;;;;;;;5.80;1.17;;;8.20;99.90;;;;;;4199601;28;20746;-80
2022/01/03 10:19:08;;;;;;;8.00;1.73;;;8.30;99.90;;;;;;4201187;28;20217;-82
2022/01/03 10:21:10;;;;;;;4.70;1.40;;;8.40;99.90;;;;;;4210062;28;20210;-84
2022/01/03 10:23:14;;;;;;;4.50;1.10;;;8.40;99.90;;;;;;4204034;28;20217;-82
2022/01/03 10:25:19;;;;;;;8.80;1.50;;;9.00;99.90;;;;;;4197425;28;20447;-77
2022/01/03 10:27:22;;;;;;;7.10;1.40;;;8.50;99.90;;;;;;4193897;28;20667;-78
2022/01/03 10:29:26;;;;;;;4.07;1.20;;;8.50;99.90;;;;;;4192176;28;20206;-80
2022/01/03 10:31:29;;;;;;;7.57;2.23;;;8.60;99.90;;;;;;4192535;28;20232;-80
2022/01/03 10:33:31;;;;;;;5.57;1.80;;;8.60;99.90;;;;;;4195699;28;20729;-80
2022/01/03 10:35:41;;;;;;;6.90;1.37;;;8.60;99.90;;;;;;4192752;28;20719;-79
2022/01/03 10:37:43;;;;;;;11.17;1.80;;;8.60;99.90;;;;;;4195520;28;20558;-78
2022/01/03 10:39:45;;;;;;;4.97;1.20;;;8.70;99.90;;;;;;4193599;28;20669;-77
2022/01/03 10:41:49;;;;;;;6.50;1.53;;;8.70;99.90;;;;;;4193836;28;20268;-74
2022/01/03 10:43:52;;;;;;;7.87;1.50;;;8.70;99.90;;;;;;4192937;28;20757;-76
2022/01/03 10:45:53;;;;;;;4.57;1.20;;;8.80;99.90;;;;;;4194168;28;20237;-76
2022/01/03 10:47:57;;;;;;;8.03;1.60;;;8.80;99.90;;;;;;4193892;28;20725;-78
2022/01/03 10:49:59;;;;;;;9.83;1.53;;;8.80;99.90;;;;;;4192751;28;20594;-78
2022/01/03 10:52:15;;;;;;;8.57;1.20;;;8.90;99.90;;;;;;4194603;28;20762;-78
2022/01/03 10:54:19;;;;;;;7.23;1.40;;;8.90;99.90;;;;;;4195735;28;20859;-79
2022/01/03 10:56:30;;;;;;;5.93;1.37;;;9.00;99.90;;;;;;4192835;28;20207;-79
2022/01/03 10:58:33;;;;;;;5.13;1.30;;;9.00;99.90;;;;;;4193364;28;20226;-79